National Weather Service United States Department of Commerce

High Fire Danger Continues Through Friday In Parts Of The Southwest U.S.

Strong winds and very low humidity will create dangerous fire weather conditions in parts of the Desert Southwest and southern High Plains through Friday. Any fires that ignite in this region could rapidly grow out of control. Red Flag Warnings are in effect for these areas. Read More >


824
FTPA31 PHFO 261449 AAA
TAFSTU
TAF AMD
NSTU 261449Z 2615/2712 11013KT 6SM -SHRA SCT015 BKN040 BKN090
TEMPO 2622/2702 4SM -SHRA SCT015 BKN035=


000
SAZS31 NSTU 261351
MTRPPG
METAR NSTU 261350Z 10011KT 10SM SCT018 BKN040 BKN100 27/26 A2990 RMK
SHRAE45 SLP124 T02660264=


METAR Formatted Surface Weather Observation  Issued: 05/26/2017 02:05:08 AM SST

NSTU Observation History

 

Significant Weather Charts